Time;durP1;ratioP1;P1;durP2;ratioP2;P2;SDS_P1;SDS_P2;PMS_P1;PMS_P2;Temp;Humidity;BMP_temperature;BMP_pressure;BME280_temperature;BME280_humidity;BME280_pressure;Samples;Min_cycle;Max_cycle;Signal;HPM_P1;HPM_P2
2022/06/10 00:02:02;;;;;;;;;;;12.00;99.90;;;;;;5020876;28;19932;-70
2022/06/10 00:04:27;;;;;;;;;;;12.00;99.90;;;;;;5027315;28;19925;-70
2022/06/10 00:06:53;;;;;;;;;;;12.00;99.90;;;;;;5027609;28;19921;-70
2022/06/10 00:09:18;;;;;;;;;;;11.90;99.90;;;;;;5028130;28;20019;-70
2022/06/10 00:11:44;;;;;;;;;;;11.90;99.90;;;;;;5026307;28;19917;-70
2022/06/10 00:14:09;;;;;;;;;;;11.90;99.90;;;;;;5022516;28;19975;-70
2022/06/10 00:16:35;;;;;;;;;;;11.90;99.90;;;;;;5024510;28;19971;-70
2022/06/10 00:19:00;;;;;;;;;;;11.80;99.90;;;;;;5019816;28;19927;-70
2022/06/10 00:21:26;;;;;;;;;;;11.80;99.90;;;;;;5030551;28;19976;-70
2022/06/10 00:23:52;;;;;;;;;;;11.80;99.90;;;;;;5015184;28;19936;-70
2022/06/10 00:26:18;;;;;;;;;;;11.80;99.90;;;;;;5013512;28;19925;-70
2022/06/10 00:28:45;;;;;;;;;;;11.80;99.90;;;;;;5015434;28;19917;-70
2022/06/10 00:31:11;;;;;;;;;;;11.80;99.90;;;;;;5025401;28;19960;-70
2022/06/10 00:33:37;;;;;;;;;;;11.70;99.90;;;;;;5025296;28;19925;-70
2022/06/10 00:36:03;;;;;;;;;;;11.70;99.90;;;;;;5030248;28;19928;-70
2022/06/10 00:38:29;;;;;;;;;;;11.70;99.90;;;;;;5028106;28;19971;-70
2022/06/10 00:40:55;;;;;;;;;;;11.70;99.90;;;;;;5032061;28;19925;-70
2022/06/10 00:43:23;;;;;;;;;;;11.70;99.90;;;;;;5030624;28;19929;-70
2022/06/10 00:45:52;;;;;;;;;;;11.60;99.90;;;;;;5031731;28;20011;-70
2022/06/10 00:48:19;;;;;;;;;;;11.60;99.90;;;;;;5032223;28;19917;-70
2022/06/10 00:50:46;;;;;;;;;;;11.60;99.90;;;;;;5031084;28;19921;-70
2022/06/10 00:53:14;;;;;;;;;;;11.60;99.90;;;;;;5031649;28;19936;-70
2022/06/10 00:55:40;;;;;;;;;;;11.50;99.90;;;;;;5029994;28;19928;-70
2022/06/10 00:58:08;;;;;;;;;;;11.50;99.90;;;;;;5010244;28;20410;-69
2022/06/10 01:00:36;;;;;;;;;;;11.50;99.90;;;;;;5032754;28;19921;-71
2022/06/10 01:03:03;;;;;;;;;;;11.50;99.90;;;;;;5012166;28;20440;-70
2022/06/10 01:05:29;;;;;;;;;;;11.40;99.90;;;;;;5027159;28;19917;-70
2022/06/10 01:08:01;;;;;;;;;;;11.50;99.90;;;;;;5030910;28;19928;-69
2022/06/10 01:10:27;;;;;;;;;;;11.50;99.90;;;;;;5014420;28;19921;-70
2022/06/10 01:13:07;;;;;;;;;;;11.40;99.90;;;;;;5030233;28;19924;-70
2022/06/10 01:15:36;;;;;;;;;;;11.40;99.90;;;;;;5029801;28;19924;-69
2022/06/10 01:18:01;;;;;;;;;;;11.40;99.90;;;;;;5030191;28;19931;-70
2022/06/10 01:20:31;;;;;;;;;;;11.40;99.90;;;;;;5029774;28;19999;-70
2022/06/10 01:23:07;;;;;;;;;;;11.40;99.90;;;;;;5031638;28;19928;-70
2022/06/10 01:25:52;;;;;;;;;;;11.40;99.90;;;;;;5029663;28;19921;-70
2022/06/10 01:28:36;;;;;;;;;;;11.30;99.90;;;;;;5029388;28;19943;-70
2022/06/10 01:31:09;;;;;;;;;;;11.40;99.90;;;;;;5019708;28;19928;-70
2022/06/10 01:33:38;;;;;;;;;;;11.30;99.90;;;;;;5025850;28;20457;-70
2022/06/10 01:36:24;;;;;;;;;;;11.40;99.90;;;;;;5028397;28;19921;-70
2022/06/10 01:38:50;;;;;;;;;;;11.40;99.90;;;;;;5025583;28;19928;-70
2022/06/10 01:41:25;;;;;;;;;;;11.40;99.90;;;;;;5026733;28;19924;-70
2022/06/10 01:43:52;;;;;;;;;;;11.30;99.90;;;;;;5034119;28;20381;-70
2022/06/10 01:46:24;;;;;;;;;;;11.30;99.90;;;;;;5033663;28;20277;-70
2022/06/10 01:48:53;;;;;;;;;;;11.30;99.90;;;;;;5014932;28;19917;-70
2022/06/10 01:51:25;;;;;;;;;;;11.30;99.90;;;;;;5039004;28;19995;-70
2022/06/10 01:53:59;;;;;;;;;;;11.20;99.90;;;;;;5028933;28;20091;-70
2022/06/10 01:56:29;;;;;;;;;;;11.30;99.90;;;;;;5028909;28;19971;-70
2022/06/10 01:58:54;;;;;;;;;;;11.20;99.90;;;;;;5029349;28;20008;-70
2022/06/10 02:01:22;;;;;;;;;;;11.30;99.90;;;;;;5028824;28;20066;-70
2022/06/10 02:03:53;;;;;;;;;;;11.20;99.90;;;;;;5027350;28;19952;-70
2022/06/10 02:06:22;;;;;;;;;;;11.10;99.90;;;;;;5027986;28;20324;-70
2022/06/10 02:08:52;;;;;;;;;;;11.20;99.90;;;;;;5030669;28;20011;-70
2022/06/10 02:11:20;;;;;;;;;;;11.20;99.90;;;;;;5013565;28;19979;-70
2022/06/10 02:13:49;;;;;;;;;;;11.20;99.90;;;;;;5027333;28;19920;-70
2022/06/10 02:16:17;;;;;;;;;;;11.10;99.90;;;;;;5029908;28;19971;-71
2022/06/10 02:19:01;;;;;;;;;;;11.20;99.90;;;;;;5014348;28;19920;-70
2022/06/10 02:21:30;;;;;;;;;;;11.20;99.90;;;;;;5036290;28;20069;-71
2022/06/10 02:23:58;;;;;;;;;;;11.10;99.90;;;;;;5028866;28;19979;-70
2022/06/10 02:26:25;;;;;;;;;;;11.10;99.90;;;;;;5028541;28;19921;-71
2022/06/10 02:28:53;;;;;;;;;;;11.10;99.90;;;;;;5013405;28;20555;-71
2022/06/10 02:31:24;;;;;;;;;;;11.10;99.90;;;;;;5028979;28;19917;-71
2022/06/10 02:33:49;;;;;;;;;;;11.10;99.90;;;;;;5025614;28;19978;-70
2022/06/10 02:36:23;;;;;;;;;;;11.00;99.90;;;;;;5030683;28;20370;-71
2022/06/10 02:39:11;;;;;;;;;;;11.00;99.90;;;;;;5032584;28;19955;-70
2022/06/10 02:41:56;;;;;;;;;;;11.00;99.90;;;;;;5012465;28;20322;-70
2022/06/10 02:44:21;;;;;;;;;;;10.90;99.90;;;;;;5030331;28;20020;-71
2022/06/10 02:46:47;;;;;;;;;;;11.00;99.90;;;;;;5030422;28;20003;-70
2022/06/10 02:49:17;;;;;;;;;;;10.90;99.90;;;;;;5029599;28;19921;-71
2022/06/10 02:51:43;;;;;;;;;;;10.90;99.90;;;;;;5008940;28;19967;-71
2022/06/10 02:54:15;;;;;;;;;;;11.00;99.90;;;;;;5032498;28;19917;-71
2022/06/10 02:56:40;;;;;;;;;;;10.90;99.90;;;;;;5028716;28;19940;-71
2022/06/10 03:02:09;;;;;;;;;;;11.00;99.90;;;;;;5034397;28;19926;-71
2022/06/10 03:04:44;;;;;;;;;;;10.90;99.90;;;;;;5032369;28;19924;-71
2022/06/10 03:07:10;;;;;;;;;;;10.90;99.90;;;;;;5034922;28;20377;-71
2022/06/10 03:09:41;;;;;;;;;;;10.90;99.90;;;;;;5029363;28;19920;-71
2022/06/10 03:12:07;;;;;;;;;;;10.90;99.90;;;;;;5029899;28;20059;-71
2022/06/10 03:15:01;;;;;;;;;;;10.80;99.90;;;;;;5034551;28;20015;-71
2022/06/10 03:17:30;;;;;;;;;;;10.90;99.90;;;;;;5028171;28;19944;-71
2022/06/10 03:19:58;;;;;;;;;;;10.80;99.90;;;;;;5028279;28;19921;-71
2022/06/10 03:22:24;;;;;;;;;;;10.80;99.90;;;;;;5027430;28;19924;-71
2022/06/10 03:24:53;;;;;;;;;;;10.80;99.90;;;;;;5010638;28;19917;-71
2022/06/10 03:27:22;;;;;;;;;;;10.80;99.90;;;;;;5030374;28;19916;-71
2022/06/10 03:30:08;;;;;;;;;;;10.90;99.90;;;;;;5030402;28;19921;-71
2022/06/10 03:32:37;;;;;;;;;;;10.80;99.90;;;;;;5019632;28;19960;-71
2022/06/10 03:35:08;;;;;;;;;;;10.80;99.90;;;;;;5029640;28;19925;-71
2022/06/10 03:37:36;;;;;;;;;;;10.80;99.90;;;;;;5029537;28;19921;-71
2022/06/10 03:40:01;;;;;;;;;;;10.90;99.90;;;;;;5039798;28;19924;-71
2022/06/10 03:42:27;;;;;;;;;;;10.80;99.90;;;;;;5034926;28;20301;-70
2022/06/10 03:44:54;;;;;;;;;;;10.80;99.90;;;;;;5027779;28;19928;-71
2022/06/10 03:47:24;;;;;;;;;;;10.80;99.90;;;;;;5027090;28;20472;-70
2022/06/10 03:49:55;;;;;;;;;;;10.80;99.90;;;;;;5026957;28;20369;-71
2022/06/10 03:52:22;;;;;;;;;;;10.90;99.90;;;;;;5029403;28;19960;-71
2022/06/10 03:54:47;;;;;;;;;;;10.90;99.90;;;;;;5032691;28;19925;-71
2022/06/10 03:57:14;;;;;;;;;;;10.90;99.90;;;;;;5015706;28;20012;-71
2022/06/10 03:59:39;;;;;;;;;;;10.90;99.90;;;;;;5032778;28;20285;-71
2022/06/10 04:02:05;;;;;;;;;;;10.90;99.90;;;;;;5031969;28;19974;-71
2022/06/10 04:04:31;;;;;;;;;;;11.00;99.90;;;;;;5030639;28;19943;-71
2022/06/10 04:06:56;;;;;;;;;;;11.00;99.90;;;;;;5031305;28;19921;-71
2022/06/10 04:09:22;;;;;;;;;;;11.10;99.90;;;;;;4997767;28;19998;-71
2022/06/10 04:11:48;;;;;;;;;;;11.10;99.90;;;;;;5015170;28;19917;-71
2022/06/10 04:14:13;;;;;;;;;;;11.20;99.90;;;;;;5030796;28;19917;-71
2022/06/10 04:16:39;;;;;;;;;;;11.30;99.90;;;;;;5031599;28;19928;-71
2022/06/10 04:19:05;;;;;;;;;;;11.30;99.90;;;;;;5032112;28;20376;-71
2022/06/10 04:21:30;;;;;;;;;;;11.40;99.90;;;;;;5028494;28;19975;-71
2022/06/10 04:23:56;;;;;;;;;;;11.50;99.90;;;;;;5030752;28;19925;-71
2022/06/10 04:26:21;;;;;;;;;;;11.50;99.90;;;;;;5031512;28;19921;-71
2022/06/10 04:28:47;;;;;;;;;;;11.50;99.90;;;;;;5030210;28;19921;-71
2022/06/10 04:31:13;;;;;;;;;;;11.60;99.90;;;;;;5029044;28;19924;-71
2022/06/10 04:33:39;;;;;;;;;;;11.70;99.90;;;;;;5029999;28;19924;-71
2022/06/10 04:36:04;;;;;;;;;;;11.70;99.90;;;;;;5029707;28;19929;-71
2022/06/10 04:38:30;;;;;;;;;;;11.80;99.90;;;;;;5032127;28;19920;-71
2022/06/10 04:40:56;;;;;;;;;;;11.80;99.90;;;;;;5030033;28;19941;-71
2022/06/10 04:43:22;;;;;;;;;;;11.90;99.90;;;;;;5030964;28;20270;-71
2022/06/10 04:45:52;;;;;;;;;;;12.00;99.90;;;;;;5027641;28;19917;-71
2022/06/10 04:48:18;;;;;;;;;;;12.10;99.90;;;;;;5025221;28;19917;-71
2022/06/10 04:50:45;;;;;;;;;;;12.20;99.90;;;;;;5022064;28;19917;-71
2022/06/10 04:53:10;;;;;;;;;;;12.30;99.90;;;;;;5036050;28;19921;-71
2022/06/10 04:55:36;;;;;;;;;;;12.40;99.90;;;;;;5029711;28;19925;-71
2022/06/10 04:58:02;;;;;;;;;;;12.60;99.90;;;;;;5011777;28;19969;-70
2022/06/10 05:00:29;;;;;;;;;;;12.70;99.90;;;;;;5017981;28;19937;-71
2022/06/10 05:02:55;;;;;;;;;;;12.90;99.90;;;;;;5024229;28;19917;-70
2022/06/10 05:05:22;;;;;;;;;;;13.10;99.90;;;;;;5030501;28;19917;-71
2022/06/10 05:07:47;;;;;;;;;;;13.20;99.90;;;;;;5031724;28;19921;-70
2022/06/10 05:10:14;;;;;;;;;;;13.40;99.90;;;;;;5006838;28;19932;-71
2022/06/10 05:12:40;;;;;;;;;;;13.50;99.90;;;;;;5030698;28;20259;-70
2022/06/10 05:15:06;;;;;;;;;;;13.60;99.90;;;;;;5029724;28;20015;-70
2022/06/10 05:17:32;;;;;;;;;;;13.70;99.90;;;;;;5029980;28;20004;-71
2022/06/10 05:19:57;;;;;;;;;;;13.80;99.90;;;;;;5028071;28;19956;-70
2022/06/10 05:22:23;;;;;;;;;;;13.80;99.90;;;;;;5013611;28;19924;-72
2022/06/10 05:24:48;;;;;;;;;;;13.80;99.90;;;;;;5025357;28;20374;-71
2022/06/10 05:27:14;;;;;;;;;;;13.90;99.90;;;;;;5029223;28;19971;-71
2022/06/10 05:29:40;;;;;;;;;;;14.00;99.90;;;;;;5012457;28;19925;-71
2022/06/10 05:32:05;;;;;;;;;;;14.10;99.90;;;;;;5031811;28;19917;-71
2022/06/10 05:34:46;;;;;;;;;;;14.10;99.90;;;;;;5013509;28;20370;-71
2022/06/10 05:37:17;;;;;;;;;;;14.20;99.90;;;;;;5026559;28;19921;-71
2022/06/10 05:39:43;;;;;;;;;;;14.30;99.90;;;;;;5030208;28;19921;-72
2022/06/10 05:42:09;;;;;;;;;;;14.40;99.90;;;;;;5032265;28;19928;-71
2022/06/10 05:44:42;;;;;;;;;;;14.40;99.90;;;;;;5038772;28;19924;-71
2022/06/10 05:47:09;;;;;;;;;;;14.40;99.90;;;;;;5028009;28;19917;-71
2022/06/10 05:49:36;;;;;;;;;;;14.50;99.90;;;;;;5030962;28;19921;-71
2022/06/10 05:52:02;;;;;;;;;;;14.50;99.90;;;;;;5027157;28;20266;-71
2022/06/10 05:54:28;;;;;;;;;;;14.60;99.90;;;;;;5030069;28;19928;-72
2022/06/10 05:56:53;;;;;;;;;;;14.60;99.90;;;;;;5040813;28;20285;-72
2022/06/10 05:59:19;;;;;;;;;;;14.70;99.90;;;;;;5032417;28;20374;-72
2022/06/10 06:01:45;;;;;;;;;;;14.80;99.90;;;;;;5023802;28;19916;-72
2022/06/10 06:04:11;;;;;;;;;;;14.70;99.90;;;;;;5031422;28;19925;-70
2022/06/10 06:06:37;;;;;;;;;;;14.80;99.90;;;;;;5045809;28;19944;-71
2022/06/10 06:09:03;;;;;;;;;;;14.80;99.90;;;;;;5028113;28;19925;-71
2022/06/10 06:11:28;;;;;;;;;;;15.00;99.90;;;;;;5025639;28;19917;-71
2022/06/10 06:13:54;;;;;;;;;;;15.00;99.90;;;;;;5027931;28;19921;-71
2022/06/10 06:16:19;;;;;;;;;;;15.00;99.90;;;;;;5022242;28;19925;-71
2022/06/10 06:18:45;;;;;;;;;;;15.00;99.90;;;;;;5028364;28;19917;-70
2022/06/10 06:21:11;;;;;;;;;;;15.20;99.90;;;;;;5029726;28;19917;-71
2022/06/10 06:23:37;;;;;;;;;;;15.20;99.90;;;;;;5029612;28;19925;-71
2022/06/10 06:26:03;;;;;;;;;;;15.30;99.90;;;;;;5030084;28;20300;-71
2022/06/10 06:28:29;;;;;;;;;;;15.50;99.90;;;;;;5040220;28;20004;-71
2022/06/10 06:30:54;;;;;;;;;;;15.60;99.90;;;;;;5022253;28;20011;-70
2022/06/10 06:33:20;;;;;;;;;;;15.70;99.90;;;;;;5027587;28;19917;-71
2022/06/10 06:35:49;;;;;;;;;;;15.70;99.90;;;;;;5032311;28;19921;-70
2022/06/10 06:38:15;;;;;;;;;;;15.70;99.90;;;;;;5023223;28;19960;-71
2022/06/10 06:40:42;;;;;;;;;;;15.50;99.90;;;;;;5024204;28;19952;-71
2022/06/10 06:43:11;;;;;;;;;;;15.50;99.90;;;;;;5032653;28;19950;-70
2022/06/10 06:45:37;;;;;;;;;;;15.40;99.90;;;;;;5025572;28;19929;-71
2022/06/10 06:48:04;;;;;;;;;;;15.40;99.90;;;;;;5033864;28;20015;-71
2022/06/10 06:50:32;;;;;;;;;;;15.20;99.90;;;;;;5049932;28;19920;-71
2022/06/10 06:52:58;;;;;;;;;;;15.20;99.90;;;;;;5036398;28;19927;-71
2022/06/10 06:55:23;;;;;;;;;;;15.20;99.90;;;;;;5050005;28;20007;-72
2022/06/10 06:57:49;;;;;;;;;;;15.40;99.90;;;;;;5050052;28;19917;-71
2022/06/10 07:00:16;;;;;;;;;;;15.40;99.90;;;;;;5030364;28;20365;-71
2022/06/10 07:02:41;;;;;;;;;;;15.50;99.90;;;;;;5023292;28;19921;-72
2022/06/10 07:05:07;;;;;;;;;;;15.50;99.90;;;;;;5031116;28;20008;-72
2022/06/10 07:07:33;;;;;;;;;;;15.70;99.90;;;;;;5024692;28;20340;-71
2022/06/10 07:09:59;;;;;;;;;;;15.80;99.90;;;;;;5030378;28;20374;-72
2022/06/10 07:12:24;;;;;;;;;;;16.00;99.90;;;;;;5029583;28;19943;-72
2022/06/10 07:14:50;;;;;;;;;;;16.10;99.90;;;;;;5028449;28;20279;-71
2022/06/10 07:17:16;;;;;;;;;;;16.10;99.90;;;;;;5028001;28;19928;-71
2022/06/10 07:19:42;;;;;;;;;;;16.20;99.90;;;;;;5033548;28;19928;-71
2022/06/10 07:22:07;;;;;;;;;;;16.30;99.90;;;;;;5028391;28;19917;-71
2022/06/10 07:24:33;;;;;;;;;;;16.30;99.90;;;;;;5040202;28;19966;-71
2022/06/10 07:27:03;;;;;;;;;;;16.20;99.90;;;;;;5041927;28;19921;-71
2022/06/10 07:29:29;;;;;;;;;;;16.20;99.90;;;;;;5028987;28;19917;-71
2022/06/10 07:31:54;;;;;;;;;;;16.10;99.90;;;;;;5025054;28;19986;-71
2022/06/10 07:34:20;;;;;;;;;;;16.20;99.90;;;;;;5016055;28;19932;-71
2022/06/10 07:36:46;;;;;;;;;;;16.20;99.90;;;;;;5022865;28;20004;-71
2022/06/10 07:39:12;;;;;;;;;;;16.20;99.90;;;;;;5047368;28;20066;-72
2022/06/10 07:44:23;;;;;;;;;;;16.30;99.90;;;;;;5028372;28;19928;-72
2022/06/10 07:46:49;;;;;;;;;;;16.40;99.90;;;;;;5041310;28;19916;-71
2022/06/10 07:49:15;;;;;;;;;;;16.40;99.90;;;;;;5029854;28;19929;-71
2022/06/10 07:51:41;;;;;;;;;;;16.50;99.90;;;;;;5029031;28;20592;-71
2022/06/10 07:54:07;;;;;;;;;;;16.50;99.90;;;;;;5020516;28;19921;-72
2022/06/10 07:56:34;;;;;;;;;;;16.60;99.90;;;;;;5025812;28;19925;-72
2022/06/10 07:59:00;;;;;;;;;;;16.60;99.90;;;;;;5029782;28;19928;-72
2022/06/10 08:01:27;;;;;;;;;;;16.70;99.90;;;;;;5025419;28;19917;-71
2022/06/10 08:03:52;;;;;;;;;;;16.70;99.90;;;;;;5002549;28;19951;-71
2022/06/10 08:06:19;;;;;;;;;;;16.60;99.90;;;;;;5018994;28;19925;-72
2022/06/10 08:08:45;;;;;;;;;;;16.60;99.90;;;;;;5011273;28;19924;-72
2022/06/10 08:11:10;;;;;;;;;;;16.60;99.90;;;;;;5033511;28;19920;-71
2022/06/10 08:13:36;;;;;;;;;;;16.60;99.90;;;;;;5038746;28;19921;-72
2022/06/10 08:16:03;;;;;;;;;;;16.50;99.90;;;;;;5033649;28;19925;-72
2022/06/10 08:18:31;;;;;;;;;;;16.50;99.90;;;;;;5030865;28;19928;-72
2022/06/10 08:23:41;;;;;;;;;;;16.70;99.90;;;;;;5042579;28;20248;-72
2022/06/10 08:26:07;;;;;;;;;;;16.80;99.90;;;;;;5039837;28;19937;-72
2022/06/10 08:28:34;;;;;;;;;;;16.80;99.90;;;;;;5028913;28;19917;-71
2022/06/10 08:31:00;;;;;;;;;;;16.70;99.90;;;;;;5029941;28;19979;-70
2022/06/10 08:33:25;;;;;;;;;;;16.60;99.90;;;;;;5026854;28;19920;-72
2022/06/10 08:35:51;;;;;;;;;;;16.70;99.90;;;;;;5022581;28;19928;-71
2022/06/10 08:38:17;;;;;;;;;;;16.60;99.90;;;;;;5025293;28;19917;-71
2022/06/10 08:40:46;;;;;;;;;;;16.70;99.90;;;;;;5011154;28;20015;-71
2022/06/10 08:43:26;;;;;;;;;;;16.80;99.90;;;;;;5028155;28;19921;-72
2022/06/10 08:45:59;;;;;;;;;;;16.90;99.90;;;;;;5026144;28;20022;-71
2022/06/10 08:48:29;;;;;;;;;;;17.00;99.90;;;;;;5029539;28;19972;-71
2022/06/10 08:51:14;;;;;;;;;;;17.10;99.90;;;;;;5028748;28;20377;-71
2022/06/10 08:53:55;;;;;;;;;;;17.10;99.90;;;;;;5032404;28;20012;-71
2022/06/10 08:56:23;;;;;;;;;;;17.00;99.90;;;;;;5028818;28;19975;-71
2022/06/10 08:58:58;;;;;;;;;;;16.90;99.90;;;;;;5026000;28;19972;-71
2022/06/10 09:01:24;;;;;;;;;;;16.90;99.90;;;;;;5012787;28;19928;-71
2022/06/10 09:04:05;;;;;;;;;;;16.80;99.90;;;;;;5028436;28;20243;-71
2022/06/10 09:06:43;;;;;;;;;;;16.90;99.90;;;;;;5029510;28;19921;-71
2022/06/10 09:09:10;;;;;;;;;;;17.00;99.90;;;;;;5027880;28;19921;-71
2022/06/10 09:11:39;;;;;;;;;;;17.00;99.90;;;;;;5030572;28;19963;-71
2022/06/10 09:14:14;;;;;;;;;;;17.30;99.90;;;;;;5033310;28;20362;-71
2022/06/10 09:16:55;;;;;;;;;;;17.50;99.90;;;;;;5029917;28;19925;-71
2022/06/10 09:19:26;;;;;;;;;;;17.50;99.90;;;;;;5008380;28;19960;-71
2022/06/10 09:22:01;;;;;;;;;;;17.70;99.90;;;;;;5025959;28;19917;-70
2022/06/10 09:24:26;;;;;;;;;;;17.60;99.90;;;;;;5017064;28;19920;-71
2022/06/10 09:27:04;;;;;;;;;;;17.60;99.90;;;;;;5030085;28;19925;-71
2022/06/10 09:29:29;;;;;;;;;;;17.60;99.90;;;;;;5028718;28;19917;-71
2022/06/10 09:32:13;;;;;;;;;;;17.50;99.90;;;;;;5028832;28;20306;-71
2022/06/10 09:34:45;;;;;;;;;;;17.40;99.90;;;;;;5025215;28;20383;-71
2022/06/10 09:37:43;;;;;;;;;;;17.30;99.90;;;;;;5026058;28;19944;-70
2022/06/10 09:43:02;;;;;;;;;;;17.20;99.90;;;;;;5025607;28;19921;-71
2022/06/10 09:45:31;;;;;;;;;;;17.20;99.90;;;;;;5011978;28;19978;-70
2022/06/10 09:48:00;;;;;;;;;;;17.30;99.90;;;;;;5028701;28;20382;-71
2022/06/10 09:50:25;;;;;;;;;;;17.30;99.90;;;;;;5014563;28;19921;-71
2022/06/10 09:52:58;;;;;;;;;;;17.40;99.90;;;;;;5041243;28;19924;-71
2022/06/10 09:55:24;;;;;;;;;;;17.40;99.90;;;;;;5009637;28;19929;-70
2022/06/10 09:57:57;;;;;;;;;;;17.50;99.90;;;;;;5024717;28;20401;-71
2022/06/10 10:00:43;;;;;;;;;;;17.70;99.90;;;;;;5023590;28;19926;-71
2022/06/10 10:03:08;;;;;;;;;;;17.80;99.90;;;;;;5038867;28;19944;-71
2022/06/10 10:05:53;;;;;;;;;;;18.00;99.90;;;;;;5025709;28;19917;-71
2022/06/10 10:08:22;;;;;;;;;;;18.10;99.90;;;;;;5031063;28;20011;-71
2022/06/10 10:10:53;;;;;;;;;;;18.10;99.90;;;;;;5005426;28;21145;-71
2022/06/10 10:13:40;;;;;;;;;;;18.10;99.90;;;;;;5027161;28;20289;-71
2022/06/10 10:16:05;;;;;;;;;;;18.00;99.90;;;;;;5010716;28;20018;-71
2022/06/10 10:18:31;;;;;;;;;;;18.10;99.90;;;;;;5031474;28;19968;-71
2022/06/10 10:21:13;;;;;;;;;;;18.10;99.90;;;;;;5016439;28;19928;-71
2022/06/10 10:23:46;;;;;;;;;;;18.20;99.90;;;;;;5030425;28;20350;-71
2022/06/10 10:26:20;;;;;;;;;;;18.10;99.90;;;;;;5031863;28;19964;-71
2022/06/10 10:28:47;;;;;;;;;;;18.00;99.90;;;;;;5031577;28;20318;-71
2022/06/10 10:31:20;;;;;;;;;;;18.10;99.90;;;;;;5033551;28;19917;-71
2022/06/10 10:33:46;;;;;;;;;;;18.20;99.90;;;;;;5030691;28;20314;-71
2022/06/10 10:36:32;;;;;;;;;;;18.30;99.90;;;;;;5036150;28;19925;-71
2022/06/10 10:38:59;;;;;;;;;;;18.40;99.90;;;;;;5027802;28;19921;-71
2022/06/10 10:41:25;;;;;;;;;;;18.50;99.90;;;;;;5025483;28;19976;-71
2022/06/10 10:43:53;;;;;;;;;;;18.60;99.90;;;;;;5041657;28;19980;-71
2022/06/10 10:46:30;;;;;;;;;;;18.60;99.90;;;;;;5010552;28;19982;-71
2022/06/10 10:48:59;;;;;;;;;;;18.60;99.90;;;;;;5023357;28;20023;-69
2022/06/10 10:51:31;;;;;;;;;;;18.60;99.90;;;;;;5021159;28;19933;-72
2022/06/10 10:54:02;;;;;;;;;;;18.60;99.90;;;;;;5009104;28;20011;-72
2022/06/10 10:56:33;;;;;;;;;;;18.40;99.90;;;;;;4998582;28;19932;-71
2022/06/10 10:58:59;;;;;;;;;;;18.30;99.90;;;;;;5024391;28;19967;-71
2022/06/10 11:01:45;;;;;;;;;;;18.20;99.90;;;;;;5020892;28;19929;-71
2022/06/10 11:04:30;;;;;;;;;;;18.30;99.90;;;;;;5018631;28;20317;-71
2022/06/10 11:06:59;;;;;;;;;;;18.30;99.90;;;;;;5020680;28;19967;-71
2022/06/10 11:09:25;;;;;;;;;;;18.30;99.90;;;;;;5001120;28;20274;-71
2022/06/10 11:11:52;;;;;;;;;;;18.40;99.90;;;;;;5020747;28;19917;-71
2022/06/10 11:14:26;;;;;;;;;;;18.60;99.90;;;;;;5020756;28;19921;-71
2022/06/10 11:16:55;;;;;;;;;;;18.60;99.90;;;;;;5023274;28;19924;-71
2022/06/10 11:19:25;;;;;;;;;;;18.70;99.90;;;;;;5020280;28;20008;-71
2022/06/10 11:21:56;;;;;;;;;;;18.80;99.90;;;;;;5023087;28;20000;-69
2022/06/10 11:24:23;;;;;;;;;;;18.80;99.90;;;;;;5022814;28;19976;-68
2022/06/10 11:26:50;;;;;;;;;;;18.90;99.90;;;;;;5020165;28;19975;-69
2022/06/10 11:29:16;;;;;;;;;;;18.90;99.90;;;;;;5020674;28;19921;-69
2022/06/10 11:31:47;;;;;;;;;;;18.90;99.90;;;;;;5026417;28;20366;-69
2022/06/10 11:34:25;;;;;;;;;;;18.80;99.90;;;;;;5028195;28;19995;-69
2022/06/10 11:36:52;;;;;;;;;;;19.10;99.90;;;;;;5027681;28;19920;-69
2022/06/10 11:39:23;;;;;;;;;;;19.20;99.90;;;;;;5012929;28;19920;-69
2022/06/10 11:41:57;;;;;;;;;;;19.50;99.90;;;;;;5010661;28;20060;-69
2022/06/10 11:44:25;;;;;;;;;;;19.60;99.90;;;;;;5028466;28;19920;-69
2022/06/10 11:46:50;;;;;;;;;;;19.50;99.90;;;;;;5027340;28;19925;-69
2022/06/10 11:49:27;;;;;;;;;;;19.30;99.90;;;;;;5025018;28;19921;-69
2022/06/10 11:52:00;;;;;;;;;;;19.30;99.90;;;;;;5019833;28;19924;-69
2022/06/10 11:54:30;;;;;;;;;;;19.30;99.90;;;;;;5025023;28;20008;-69
2022/06/10 11:59:47;;;;;;;;;;;19.60;99.90;;;;;;5013373;28;20015;-69
2022/06/10 12:02:17;;;;;;;;;;;19.80;99.90;;;;;;5028832;28;19921;-70
2022/06/10 12:04:45;;;;;;;;;;;20.10;99.90;;;;;;5026663;28;20429;-71
2022/06/10 12:07:15;;;;;;;;;;;20.50;99.90;;;;;;5029328;28;20028;-70
2022/06/10 12:09:43;;;;;;;;;;;21.00;99.90;;;;;;5028754;28;19991;-71
2022/06/10 12:12:29;;;;;;;;;;;21.60;99.90;;;;;;5027574;28;19978;-70
2022/06/10 12:14:58;;;;;;;;;;;21.60;99.90;;;;;;5017796;28;19979;-70
2022/06/10 12:17:26;;;;;;;;;;;21.40;99.90;;;;;;5034058;28;19954;-70
2022/06/10 12:19:56;;;;;;;;;;;21.20;99.90;;;;;;5033238;28;19932;-69
2022/06/10 12:22:22;;;;;;;;;;;21.00;99.90;;;;;;5033742;28;20394;-69
2022/06/10 12:24:49;;;;;;;;;;;20.80;99.90;;;;;;5025108;28;20002;-69
2022/06/10 12:27:22;;;;;;;;;;;20.60;99.90;;;;;;5030267;28;19972;-69
2022/06/10 12:30:02;;;;;;;;;;;20.50;99.90;;;;;;5032559;28;20003;-69
2022/06/10 12:32:35;;;;;;;;;;;20.40;99.90;;;;;;5032012;28;19972;-69
2022/06/10 12:35:00;;;;;;;;;;;20.40;99.90;;;;;;5030330;28;19928;-69
2022/06/10 12:37:35;;;;;;;;;;;20.20;99.90;;;;;;5032618;28;19921;-69
2022/06/10 12:40:06;;;;;;;;;;;20.10;99.90;;;;;;5026965;28;19923;-69
2022/06/10 12:42:39;;;;;;;;;;;20.10;99.90;;;;;;5028569;28;19921;-69
2022/06/10 12:45:09;;;;;;;;;;;20.10;99.90;;;;;;5028901;28;19943;-69
2022/06/10 12:47:38;;;;;;;;;;;20.00;99.90;;;;;;5006696;28;19921;-70
2022/06/10 12:50:16;;;;;;;;;;;20.10;99.90;;;;;;5017056;28;19921;-71
2022/06/10 12:53:00;;;;;;;;;;;20.20;99.90;;;;;;5021510;28;19928;-70
2022/06/10 12:55:30;;;;;;;;;;;20.30;99.90;;;;;;5017656;28;19927;-70
2022/06/10 12:57:55;;;;;;;;;;;20.20;99.90;;;;;;5020498;28;19928;-69
2022/06/10 13:00:21;;;;;;;;;;;20.20;99.90;;;;;;5026990;28;19917;-69
2022/06/10 13:02:48;;;;;;;;;;;20.10;99.90;;;;;;5030034;28;19917;-69
2022/06/10 13:12:06;;;;;;;9.23;3.10;;;20.20;99.90;;;;;;5047451;27;1980113;-76
2022/06/10 13:14:34;;;;;;;5.45;2.03;;;20.20;99.90;;;;;;5104006;28;20505;-76
2022/06/10 13:17:00;;;;;;;5.15;2.00;;;20.40;99.90;;;;;;5082036;28;20036;-76
2022/06/10 13:19:42;;;;;;;;;;;20.50;99.90;;;;;;5090643;28;20645;-76
2022/06/10 13:22:19;;;;;;;6.53;1.85;;;20.50;99.90;;;;;;5084406;28;19995;-78
2022/06/10 13:24:54;;;;;;;7.32;2.40;;;20.50;99.90;;;;;;5067015;28;20028;-78
2022/06/10 13:27:29;;;;;;;4.90;1.73;;;20.60;99.90;;;;;;5082097;28;20115;-72
2022/06/10 13:29:58;;;;;;;3.53;1.95;;;20.70;99.90;;;;;;5084910;28;20055;-71
2022/06/10 13:32:25;;;;;;;3.47;1.58;;;21.10;99.90;;;;;;5079834;28;20044;-71
2022/06/10 13:35:02;;;;;;;5.22;1.90;;;21.30;99.90;;;;;;5085742;28;20044;-71
2022/06/10 13:37:37;;;;;;;6.50;2.00;;;21.30;99.90;;;;;;5081596;28;20040;-71
2022/06/10 13:40:06;;;;;;;3.10;1.40;;;21.30;99.90;;;;;;5053800;28;21561;-72
2022/06/10 13:42:37;;;;;;;4.03;1.20;;;21.60;99.90;;;;;;5086663;28;20110;-71
2022/06/10 13:45:18;;;;;;;3.42;1.05;;;21.70;99.90;;;;;;5100501;28;20052;-71
2022/06/10 13:48:15;;;;;;;4.03;1.13;;;21.80;99.90;;;;;;5087471;28;20043;-73
2022/06/10 13:53:34;;;;;;;3.03;1.10;;;22.00;99.90;;;;;;5089134;28;20480;-73
2022/06/10 13:56:03;;;;;;;3.85;1.17;;;22.60;99.90;;;;;;5082961;28;20040;-72
2022/06/10 13:58:30;;;;;;;3.55;1.35;;;22.60;99.90;;;;;;5089747;28;20047;-71
2022/06/10 14:01:17;;;;;;;4.75;1.10;;;22.90;99.90;;;;;;5071000;28;20124;-71
2022/06/10 14:03:58;;;;;;;3.63;1.23;;;22.90;99.90;;;;;;5068466;28;20386;-71
2022/06/10 14:06:30;;;;;;;3.05;1.00;;;22.70;99.90;;;;;;5083292;28;20467;-71
2022/06/10 14:09:30;;;;;;;3.65;1.00;;;22.70;99.90;;;;;;5084707;28;20044;-71
2022/06/10 14:12:22;;;;;;;3.85;1.35;;;23.00;99.90;;;;;;5058131;28;20065;-71
2022/06/10 14:14:49;;;;;;;5.22;1.25;;;23.00;99.90;;;;;;5081161;28;20044;-71
2022/06/10 14:17:24;;;;;;;4.82;1.20;;;22.50;99.90;;;;;;5076621;28;20132;-72
2022/06/10 14:19:56;;;;;;;4.22;1.20;;;22.60;99.90;;;;;;5074516;28;20036;-70
2022/06/10 14:22:28;;;;;;;5.75;1.77;;;22.40;99.90;;;;;;5068939;28;20067;-72
2022/06/10 14:25:14;;;;;;;2.92;1.10;;;22.30;99.90;;;;;;5054518;28;20041;-71
2022/06/10 14:27:42;;;;;;;;;;;22.70;99.90;;;;;;5072230;28;20593;-72
2022/06/10 14:30:32;;;;;;;7.55;1.90;;;23.10;99.90;;;;;;5053838;28;19920;-71
2022/06/10 14:33:14;;;;;;;7.13;1.70;;;23.00;99.90;;;;;;5071940;28;20047;-72
2022/06/10 14:35:47;;;;;;;5.05;1.70;;;22.20;99.90;;;;;;5058365;28;20387;-72
2022/06/10 14:38:13;;;;;;;4.70;1.45;;;22.10;99.90;;;;;;5063993;28;20037;-71
2022/06/10 14:41:00;;;;;;;5.65;2.08;;;21.90;99.90;;;;;;5048139;28;20059;-72
2022/06/10 14:43:38;;;;;;;5.65;1.60;;;21.80;99.90;;;;;;5064222;28;20032;-72
2022/06/10 14:46:18;;;;;;;3.72;1.40;;;22.00;99.90;;;;;;5077816;28;20044;-72